createdAt,value
2023-03-18T07:11:50.685Z,96227.44
2023-03-18T07:12:52.429Z,96217.63
2023-03-18T07:13:53.922Z,96222.38
2023-03-18T07:14:55.384Z,96232.97
2023-03-18T07:15:57.017Z,96229.56
2023-03-18T07:16:58.855Z,96229.31
2023-03-18T07:18:00.540Z,96228.66
2023-03-18T07:19:02.761Z,96229.09
2023-03-18T07:20:05.483Z,96228.72
2023-03-18T07:21:06.949Z,96236.28
2023-03-18T07:22:08.569Z,96219.88
2023-03-18T07:23:10.574Z,96235.06
2023-03-18T07:24:12.625Z,96238.97
2023-03-18T07:25:14.364Z,96234.06
2023-03-18T07:26:15.729Z,96234.19
2023-03-18T07:27:17.223Z,96228.97
2023-03-18T07:28:18.709Z,96235.19
2023-03-18T07:29:20.389Z,96237.19
2023-03-18T07:30:21.943Z,96239.59
2023-03-18T07:31:25.361Z,96240.19
2023-03-18T07:32:26.977Z,96235.59
2023-03-18T07:33:28.661Z,96237.84
2023-03-18T07:34:30.763Z,96236.00
2023-03-18T07:35:32.728Z,96245.41
2023-03-18T07:36:34.264Z,96240.44
2023-03-18T07:37:35.946Z,96240.75
2023-03-18T07:38:37.351Z,96242.50
2023-03-18T07:39:38.793Z,96231.03
2023-03-18T07:40:40.170Z,96240.94
2023-03-18T07:41:41.684Z,96224.28
2023-03-18T07:42:43.129Z,96240.88
2023-03-18T07:43:45.173Z,96241.91
2023-03-18T07:44:46.651Z,96244.34
2023-03-18T07:45:48.152Z,96252.06
2023-03-18T07:46:49.603Z,96251.88
2023-03-18T07:47:51.051Z,96244.75
2023-03-18T07:48:52.904Z,96246.66
2023-03-18T07:49:54.312Z,96236.88
2023-03-18T07:50:55.727Z,96241.41
2023-03-18T07:51:57.627Z,96244.31
2023-03-18T07:52:59.758Z,96243.06
2023-03-18T07:54:01.246Z,96241.53
2023-03-18T07:55:02.861Z,96248.25
2023-03-18T07:56:04.557Z,96250.06
2023-03-18T07:57:07.074Z,96246.47
2023-03-18T07:58:08.667Z,96259.41
2023-03-18T07:59:10.377Z,96249.47
2023-03-18T08:00:12.730Z,96239.84
2023-03-18T08:01:16.517Z,96251.63
2023-03-18T08:02:18.126Z,96246.69
2023-03-18T08:03:19.529Z,96254.50
2023-03-18T08:04:20.943Z,96250.66
2023-03-18T08:05:22.756Z,96254.00
2023-03-18T08:06:25.186Z,96257.88
2023-03-18T08:07:26.584Z,96248.03
2023-03-18T08:08:28.893Z,96248.97
2023-03-18T08:09:30.467Z,96247.91
2023-03-18T08:10:31.853Z,96254.00
2023-03-18T08:11:33.461Z,96241.41
2023-03-18T08:12:49.406Z,96245.72
2023-03-18T08:13:53.324Z,96247.84
2023-03-18T08:14:54.906Z,96258.91
2023-03-18T08:15:56.464Z,96260.94
2023-03-18T08:16:58.058Z,96252.09
2023-03-18T08:17:59.491Z,96251.00
2023-03-18T08:19:00.952Z,96252.91
2023-03-18T08:20:02.468Z,96243.41
2023-03-18T08:21:04.896Z,96235.34
2023-03-18T08:22:06.323Z,96252.31
2023-03-18T08:23:08.095Z,96256.22
2023-03-18T08:24:10.934Z,96253.16
2023-03-18T08:25:13.506Z,96248.94
2023-03-18T08:26:14.931Z,96260.47
2023-03-18T08:27:16.300Z,96244.88
2023-03-18T08:28:18.429Z,96251.38
2023-03-18T08:29:19.894Z,96255.03
2023-03-18T08:30:25.138Z,96263.22
2023-03-18T08:31:26.582Z,96253.25
2023-03-18T08:32:28.047Z,96262.97
2023-03-18T08:33:29.522Z,96258.34
2023-03-18T08:34:30.967Z,96256.44
2023-03-18T08:35:32.882Z,96261.06
2023-03-18T08:36:36.193Z,96261.91
2023-03-18T08:37:37.825Z,96257.22
2023-03-18T08:38:39.993Z,96261.03
2023-03-18T08:39:43.869Z,96251.56
2023-03-18T08:40:47.285Z,96253.69
2023-03-18T08:41:49.061Z,96248.47
2023-03-18T08:42:50.466Z,96256.06
2023-03-18T08:43:52.461Z,96247.72
2023-03-18T08:44:54.839Z,96252.09
2023-03-18T08:45:56.499Z,96241.13
2023-03-18T08:46:57.893Z,96255.53
2023-03-18T08:48:00.238Z,96245.63
2023-03-18T08:49:02.095Z,96255.22
2023-03-18T08:50:04.260Z,96247.63
2023-03-18T08:51:10.619Z,96252.97
2023-03-18T08:52:12.317Z,96246.84
2023-03-18T08:53:14.336Z,96248.09
2023-03-18T08:54:16.500Z,96251.44
2023-03-18T08:55:18.013Z,96251.53
2023-03-18T08:56:19.423Z,96253.34
2023-03-18T08:57:21.120Z,96252.81
2023-03-18T08:58:22.560Z,96251.63
2023-03-18T08:59:23.995Z,96246.16
2023-03-18T09:00:26.281Z,96256.25
2023-03-18T09:01:27.751Z,96258.75
2023-03-18T09:02:29.430Z,96257.84
2023-03-18T09:03:31.255Z,96249.75
2023-03-18T09:04:32.736Z,96255.63
2023-03-18T09:05:35.215Z,96251.72
2023-03-18T09:06:36.754Z,96257.94
2023-03-18T09:07:38.254Z,96248.63
2023-03-18T09:08:39.691Z,96250.97
2023-03-18T09:09:44.089Z,96244.81
2023-03-18T09:10:46.351Z,96252.16
2023-03-18T09:11:47.917Z,96242.06
2023-03-18T09:12:49.956Z,96244.31
2023-03-18T09:13:52.167Z,96228.53
2023-03-18T09:14:53.752Z,96246.69
2023-03-18T09:15:55.197Z,96243.88
2023-03-18T09:16:56.753Z,96242.78
2023-03-18T09:18:10.774Z,96233.00
2023-03-18T09:19:13.721Z,96240.25
2023-03-18T09:20:17.102Z,96236.91
2023-03-18T09:21:19.130Z,96233.81
2023-03-18T09:22:21.654Z,96232.13
2023-03-18T09:23:23.213Z,96238.56
2023-03-18T09:24:24.747Z,96238.47
2023-03-18T09:25:26.998Z,96242.75
2023-03-18T09:26:28.355Z,96239.69
2023-03-18T09:27:29.847Z,96240.53
2023-03-18T09:28:31.304Z,96248.41
2023-03-18T09:29:33.036Z,96240.59
2023-03-18T09:30:34.714Z,96232.56
2023-03-18T09:31:37.349Z,96235.75
2023-03-18T09:32:38.878Z,96229.13
2023-03-18T09:33:41.817Z,96220.38
2023-03-18T09:34:44.766Z,96221.22
2023-03-18T09:35:46.205Z,96219.41
2023-03-18T09:36:51.068Z,96234.94
2023-03-18T09:37:53.963Z,96226.13
2023-03-18T09:38:55.960Z,96221.47
2023-03-18T09:39:57.343Z,96229.94
2023-03-18T09:41:10.414Z,96225.59
2023-03-18T09:42:23.219Z,96201.22
2023-03-18T09:43:58.525Z,96229.66
2023-03-18T09:45:03.563Z,96226.44
2023-03-18T09:46:18.412Z,96224.72
2023-03-18T09:47:51.424Z,96225.88
2023-03-18T09:49:17.937Z,96229.34
2023-03-18T09:50:38.033Z,96227.75
2023-03-18T09:51:47.940Z,96222.94
2023-03-18T09:53:06.684Z,96223.59
2023-03-18T09:54:22.763Z,96214.84
2023-03-18T09:55:30.350Z,96219.88
2023-03-18T09:56:35.319Z,96213.69
2023-03-18T09:57:42.489Z,96217.22
2023-03-18T09:58:51.746Z,96218.53
2023-03-18T10:00:00.894Z,96216.75
2023-03-18T10:01:07.288Z,96208.47
2023-03-18T10:02:22.261Z,96214.91
2023-03-18T10:03:33.843Z,96213.59
2023-03-18T10:04:46.519Z,96213.44
2023-03-18T10:05:55.080Z,96207.53
2023-03-18T10:07:06.228Z,96211.50
2023-03-18T10:08:44.014Z,96209.56
2023-03-18T10:09:59.520Z,96218.50
2023-03-18T10:11:06.478Z,96211.84
2023-03-18T10:12:20.209Z,96209.75
2023-03-18T10:13:29.924Z,96213.94
2023-03-18T10:14:41.396Z,96206.41
2023-03-18T10:15:48.968Z,96213.84
2023-03-18T10:16:55.697Z,96212.25
2023-03-18T10:18:15.134Z,96214.13
2023-03-18T10:19:16.560Z,96202.88
2023-03-18T10:20:46.356Z,96217.06
2023-03-18T10:22:16.043Z,96222.97
2023-03-18T10:23:32.739Z,96216.81
2023-03-18T10:24:46.989Z,96224.78
2023-03-18T10:26:01.736Z,96217.09
2023-03-18T10:27:15.194Z,96222.66
2023-03-18T10:28:40.119Z,96213.69
2023-03-18T10:30:28.733Z,96215.34
2023-03-18T10:31:44.493Z,96223.44
2023-03-18T10:32:51.254Z,96226.09
2023-03-18T10:34:01.941Z,96219.53
2023-03-18T10:35:09.386Z,96219.72
2023-03-18T10:36:23.464Z,96217.41
2023-03-18T10:37:45.941Z,96225.03
2023-03-18T10:38:50.616Z,96214.50
2023-03-18T10:39:53.297Z,96213.13
2023-03-18T10:40:56.449Z,96207.13
2023-03-18T10:42:02.833Z,96219.31
2023-03-18T10:43:10.822Z,96215.72
2023-03-18T10:44:31.036Z,96212.81
2023-03-18T10:45:34.506Z,96214.91
2023-03-18T10:46:37.590Z,96209.59
2023-03-18T10:47:44.975Z,96211.41
2023-03-18T10:48:57.297Z,96211.34
2023-03-18T10:50:21.629Z,96212.31
2023-03-18T10:51:23.073Z,96219.53
2023-03-18T10:52:34.887Z,96207.88
2023-03-18T10:53:52.836Z,96210.41
2023-03-18T10:54:54.335Z,96201.19
2023-03-18T10:56:07.701Z,96216.56
2023-03-18T10:57:14.380Z,96204.47
2023-03-18T10:58:18.607Z,96204.69
2023-03-18T10:59:23.154Z,96206.94
2023-03-18T11:00:33.636Z,96208.19
2023-03-18T11:01:37.310Z,96203.19
2023-03-18T11:02:40.374Z,96202.44
2023-03-18T11:03:47.218Z,96205.50
2023-03-18T11:04:54.462Z,96204.28
2023-03-18T11:06:03.991Z,96201.59
2023-03-18T11:07:12.820Z,96195.94
2023-03-18T11:08:40.909Z,96197.91
2023-03-18T11:09:42.388Z,96188.34
2023-03-18T11:10:46.355Z,96179.66
2023-03-18T11:11:57.789Z,96183.88
2023-03-18T11:13:02.598Z,96182.69
2023-03-18T11:14:07.468Z,96180.56
2023-03-18T11:15:12.838Z,96181.94
2023-03-18T11:16:26.049Z,96181.50
2023-03-18T11:17:36.928Z,96181.94
2023-03-18T11:18:38.308Z,96177.44
2023-03-18T11:19:59.641Z,96181.81
2023-03-18T11:21:03.395Z,96178.56
2023-03-18T11:22:11.631Z,96190.34
2023-03-18T11:23:53.496Z,96187.31
2023-03-18T11:25:03.712Z,96188.13
2023-03-18T11:26:08.633Z,96193.75
2023-03-18T11:27:16.094Z,96188.16
2023-03-18T11:28:23.151Z,96181.69
2023-03-18T11:29:33.040Z,96178.50
2023-03-18T11:30:57.006Z,96170.47
2023-03-18T11:31:59.694Z,96177.16
2023-03-18T11:33:15.444Z,96174.75
2023-03-18T11:34:19.748Z,96176.97
2023-03-18T11:35:24.315Z,96171.72
2023-03-18T11:36:28.174Z,96174.19
2023-03-18T11:37:33.198Z,96179.03
2023-03-18T11:38:37.127Z,96180.09
2023-03-18T11:39:41.435Z,96165.75
2023-03-18T11:40:43.606Z,96173.91
2023-03-18T11:41:45.296Z,96178.56
2023-03-18T11:42:48.467Z,96166.91
2023-03-18T11:44:03.376Z,96172.59
2023-03-18T11:45:20.270Z,96173.41
2023-03-18T11:46:26.451Z,96176.91
2023-03-18T11:47:32.124Z,96168.25
2023-03-18T11:48:36.889Z,96181.06
2023-03-18T11:49:39.013Z,96181.41
2023-03-18T11:50:53.770Z,96175.34
2023-03-18T11:52:15.926Z,96178.28
2023-03-18T11:53:29.754Z,96180.31
2023-03-18T11:55:01.526Z,96171.31
2023-03-18T11:56:16.665Z,96169.34
2023-03-18T11:57:27.524Z,96165.75
2023-03-18T11:58:28.898Z,96166.81
2023-03-18T11:59:42.299Z,96164.09
2023-03-18T12:01:01.940Z,96162.34
2023-03-18T12:02:25.412Z,96159.16
2023-03-18T12:03:39.981Z,96170.91
2023-03-18T12:05:01.101Z,96158.25
2023-03-18T12:06:05.428Z,96164.69
2023-03-18T12:07:22.203Z,96157.41
2023-03-18T12:08:26.789Z,96161.50
2023-03-18T12:09:56.905Z,96159.66
2023-03-18T12:11:19.907Z,96151.56
2023-03-18T12:12:46.138Z,96144.19
2023-03-18T12:14:15.606Z,96144.75
2023-03-18T12:15:46.021Z,96140.56
2023-03-18T12:16:56.699Z,96150.81
2023-03-18T12:18:15.431Z,96140.44
2023-03-18T12:19:54.411Z,96144.31
2023-03-18T12:21:04.520Z,96141.22
2023-03-18T12:22:24.208Z,96137.66
2023-03-18T12:23:42.312Z,96125.16
2023-03-18T12:25:25.900Z,96140.09
2023-03-18T12:26:40.445Z,96140.63
2023-03-18T12:28:11.062Z,96142.09
2023-03-18T12:29:31.723Z,96141.72
2023-03-18T12:30:39.053Z,96131.66
2023-03-18T12:32:08.482Z,96129.50
2023-03-18T12:33:19.057Z,96127.38
2023-03-18T12:34:29.487Z,96127.78
2023-03-18T12:35:37.913Z,96122.59
2023-03-18T12:37:01.222Z,96133.03
2023-03-18T12:38:25.300Z,96133.22
2023-03-18T12:39:42.704Z,96128.44
2023-03-18T12:41:18.012Z,96130.41
2023-03-18T12:42:22.412Z,96129.88
2023-03-18T12:44:02.169Z,96128.50
2023-03-18T12:45:11.781Z,96129.66
2023-03-18T12:46:27.350Z,96127.78
2023-03-18T12:47:52.044Z,96128.16
2023-03-18T12:49:11.818Z,96115.13
2023-03-18T12:50:18.976Z,96119.94
2023-03-18T12:51:28.402Z,96123.38
2023-03-18T12:52:38.456Z,96123.38
2023-03-18T12:53:46.432Z,96118.69
2023-03-18T12:55:01.517Z,96111.09
2023-03-18T12:56:09.788Z,96127.00
2023-03-18T12:57:20.562Z,96114.03
2023-03-18T12:58:28.942Z,96108.84
2023-03-18T12:59:38.338Z,96111.75
2023-03-18T13:00:50.045Z,96113.44
2023-03-18T13:02:24.552Z,96104.88
2023-03-18T13:03:43.448Z,96111.84
2023-03-18T13:04:55.375Z,96109.97
2023-03-18T13:06:20.532Z,96109.38
2023-03-18T13:07:36.218Z,96107.56
2023-03-18T13:09:09.923Z,96092.66
2023-03-18T13:10:19.852Z,96111.19
2023-03-18T13:11:54.724Z,96099.47
2023-03-18T13:13:01.375Z,96092.84
2023-03-18T13:14:14.176Z,96089.84
2023-03-18T13:15:35.650Z,96095.78
2023-03-18T13:16:38.914Z,96106.91
2023-03-18T13:17:44.948Z,96100.19
2023-03-18T13:18:51.872Z,96095.06
2023-03-18T13:19:53.323Z,96101.59
2023-03-18T13:20:58.570Z,96097.94
2023-03-18T13:22:18.234Z,96094.16
2023-03-18T13:23:50.465Z,96091.56
2023-03-18T13:25:33.542Z,96099.31
2023-03-18T13:26:52.239Z,96095.88
2023-03-18T13:28:28.311Z,96101.91
2023-03-18T13:30:02.356Z,96092.97
2023-03-18T13:31:22.550Z,96098.00
2023-03-18T13:32:41.972Z,96097.78
2023-03-18T13:34:11.834Z,96099.78
2023-03-18T13:35:22.105Z,96101.34
2023-03-18T13:36:43.530Z,96098.81
2023-03-18T13:37:50.567Z,96096.50
2023-03-18T13:39:25.032Z,96105.75
2023-03-18T13:41:04.211Z,96094.47
2023-03-18T13:42:20.659Z,96095.19
2023-03-18T13:43:24.272Z,96095.44
2023-03-18T13:44:36.188Z,96095.19
2023-03-18T13:45:44.906Z,96081.22
2023-03-18T13:47:04.014Z,96090.47
2023-03-18T13:48:18.355Z,96093.72
2023-03-18T13:49:29.770Z,96094.25
2023-03-18T13:50:37.899Z,96093.56
2023-03-18T13:51:49.815Z,96062.72
2023-03-18T13:52:55.225Z,96101.56
2023-03-18T13:54:01.644Z,96095.28
2023-03-18T13:55:07.839Z,96091.00
2023-03-18T13:56:40.699Z,96099.03
2023-03-18T13:57:48.463Z,96100.53
2023-03-18T13:58:52.487Z,96103.28
2023-03-18T14:00:31.153Z,96093.31
2023-03-18T14:01:35.471Z,96096.28
2023-03-18T14:02:39.582Z,96101.13
2023-03-18T14:03:44.053Z,96098.75
2023-03-18T14:04:48.248Z,96095.00
2023-03-18T14:05:51.924Z,96091.63
2023-03-18T14:07:15.474Z,96095.75
2023-03-18T14:08:44.534Z,96094.19
2023-03-18T14:09:52.364Z,96096.53
2023-03-18T14:11:16.897Z,96093.19
2023-03-18T14:12:38.408Z,96096.41
2023-03-18T14:13:39.938Z,96099.09
2023-03-18T14:14:55.157Z,96105.41
2023-03-18T14:15:57.977Z,96098.84
2023-03-18T14:16:59.635Z,96103.00
2023-03-18T14:18:01.559Z,96095.19
2023-03-18T14:19:32.591Z,96109.44
2023-03-18T14:20:39.765Z,96104.19
2023-03-18T14:21:51.060Z,96107.28
2023-03-18T14:22:55.685Z,96106.81
2023-03-18T14:24:12.471Z,96107.91
2023-03-18T14:25:13.800Z,96103.75
2023-03-18T14:26:21.622Z,96094.66
2023-03-18T14:27:23.719Z,96102.13
2023-03-18T14:28:26.353Z,96111.00
2023-03-18T14:29:48.257Z,96110.78
2023-03-18T14:30:58.125Z,96111.47
2023-03-18T14:32:01.155Z,96104.84
2023-03-18T14:33:18.105Z,96116.19
2023-03-18T14:34:19.430Z,96107.09
2023-03-18T14:35:29.549Z,96082.19
2023-03-18T14:36:46.754Z,96102.88
2023-03-18T14:38:09.171Z,96102.72
2023-03-18T14:39:31.528Z,96099.38
2023-03-18T14:40:40.901Z,96103.56
2023-03-18T14:41:47.144Z,96101.88
2023-03-18T14:42:58.288Z,96098.25
2023-03-18T14:44:24.116Z,96102.09
2023-03-18T14:45:37.550Z,96110.03
2023-03-18T14:46:44.787Z,96099.06
2023-03-18T14:47:54.870Z,96102.00
2023-03-18T14:48:56.268Z,96104.47
2023-03-18T14:50:04.165Z,96092.78
2023-03-18T14:51:17.582Z,96095.09
2023-03-18T14:52:25.195Z,96101.28
2023-03-18T14:53:29.850Z,96099.03
2023-03-18T14:54:38.818Z,96096.69
2023-03-18T14:55:41.248Z,96081.94
2023-03-18T14:56:53.512Z,96093.06
2023-03-18T14:57:55.062Z,96088.78
2023-03-18T14:58:57.148Z,96087.53
2023-03-18T14:59:59.629Z,96066.09
2023-03-18T15:01:09.682Z,96075.56
2023-03-18T15:02:32.477Z,96092.22
2023-03-18T15:03:34.340Z,96092.56
2023-03-18T15:04:36.246Z,96087.94
2023-03-18T15:05:39.992Z,96092.34
2023-03-18T15:06:41.914Z,96083.88
2023-03-18T15:07:44.349Z,96092.81
2023-03-18T15:08:56.673Z,96088.03
2023-03-18T15:10:01.054Z,96082.22
2023-03-18T15:11:05.957Z,96089.31
2023-03-18T15:12:25.950Z,96078.63
2023-03-18T15:13:27.410Z,96086.34
2023-03-18T15:14:31.703Z,96088.75
2023-03-18T15:15:34.757Z,96096.47
2023-03-18T15:16:36.839Z,96089.34
2023-03-18T15:17:39.183Z,96094.53
2023-03-18T15:18:40.688Z,96087.31
2023-03-18T15:19:42.587Z,96091.22
2023-03-18T15:20:47.396Z,96082.19
2023-03-18T15:21:49.510Z,96090.81
2023-03-18T15:22:51.751Z,96071.84
2023-03-18T15:23:57.372Z,96085.16
2023-03-18T15:25:08.296Z,96091.19
2023-03-18T15:26:24.656Z,96082.59
2023-03-18T15:27:27.770Z,96088.09
2023-03-18T15:28:29.627Z,96090.28
2023-03-18T15:29:37.313Z,96093.75
2023-03-18T15:30:38.774Z,96089.88
2023-03-18T15:31:43.916Z,96089.66
2023-03-18T15:32:49.668Z,96088.22
2023-03-18T15:34:19.240Z,96090.88
2023-03-18T15:35:26.236Z,96092.41
2023-03-18T15:36:28.734Z,96085.59
2023-03-18T15:37:30.721Z,96086.09
2023-03-18T15:38:33.953Z,96095.25
2023-03-18T15:39:37.871Z,96092.63
2023-03-18T15:40:51.930Z,96092.63
2023-03-18T15:41:54.792Z,96093.31
2023-03-18T15:43:28.390Z,96090.41
2023-03-18T15:44:40.664Z,96102.94
2023-03-18T15:45:46.753Z,96082.59
2023-03-18T15:46:48.464Z,96091.81
2023-03-18T15:47:49.872Z,96094.72
2023-03-18T15:48:55.069Z,96083.97
2023-03-18T15:49:58.892Z,96088.09
2023-03-18T15:51:04.959Z,96086.25
2023-03-18T15:52:08.137Z,96077.25
2023-03-18T15:53:23.515Z,96083.13
2023-03-18T15:54:30.119Z,96071.00
2023-03-18T15:55:48.023Z,96087.75
2023-03-18T15:56:50.239Z,96082.44
2023-03-18T15:57:53.853Z,96078.19
2023-03-18T15:59:04.078Z,96085.94
2023-03-18T16:00:10.447Z,96080.84
2023-03-18T16:01:17.884Z,96079.91
2023-03-18T16:02:19.453Z,96082.53
2023-03-18T16:03:27.531Z,96086.97
2023-03-18T16:04:34.168Z,96084.59
2023-03-18T16:05:35.869Z,96083.97
2023-03-18T16:06:38.528Z,96084.41
2023-03-18T16:07:40.563Z,96092.72
2023-03-18T16:08:42.066Z,96091.66
2023-03-18T16:09:43.922Z,96089.22
2023-03-18T16:10:46.738Z,96085.38
2023-03-18T16:11:54.685Z,96085.59
2023-03-18T16:13:01.640Z,96078.13
2023-03-18T16:14:03.314Z,96084.81
2023-03-18T16:15:06.714Z,96086.66
2023-03-18T16:16:15.480Z,96091.69
2023-03-18T16:17:21.813Z,96093.00
2023-03-18T16:18:23.664Z,96086.16
2023-03-18T16:19:28.334Z,96087.13
2023-03-18T16:20:31.288Z,96089.19
2023-03-18T16:21:33.080Z,96084.84
2023-03-18T16:22:35.180Z,96085.72
2023-03-18T16:23:37.012Z,96088.06
2023-03-18T16:24:38.788Z,96092.16
2023-03-18T16:25:41.573Z,96094.28
2023-03-18T16:26:43.065Z,96089.44
2023-03-18T16:27:50.198Z,96092.63
2023-03-18T16:28:51.749Z,96095.63
2023-03-18T16:29:53.493Z,96098.00
2023-03-18T16:30:56.134Z,96096.72
2023-03-18T16:31:57.906Z,96104.16
2023-03-18T16:32:59.608Z,96112.16
2023-03-18T16:34:01.032Z,96093.81
2023-03-18T16:35:03.538Z,96108.69
2023-03-18T16:36:06.545Z,96103.16
2023-03-18T16:37:18.645Z,96104.94
2023-03-18T16:38:20.354Z,96104.50
2023-03-18T16:39:35.097Z,96114.81
2023-03-18T16:40:36.667Z,96110.03
2023-03-18T16:41:38.044Z,96121.75
2023-03-18T16:42:39.372Z,96112.88
2023-03-18T16:43:41.012Z,96115.13
2023-03-18T16:44:42.386Z,96110.44
2023-03-18T16:45:43.958Z,96116.56
2023-03-18T16:46:47.769Z,96112.84
2023-03-18T16:47:51.829Z,96102.53
2023-03-18T16:48:53.904Z,96120.34
2023-03-18T16:49:56.426Z,96116.78
2023-03-18T16:50:59.803Z,96124.34
